Farnborough Airport

EGLF | FAB

Farnborough , England , United Kingdom

Saturday, September 21st, 2019 | 13:03

Weather

EGLF 211150Z AUTO 10010KT 070V150 9999 NCD 23/09 Q1011

Charts

1 Available

Gates

21 Available

Runways

1 Available

Events

No events for this airport


New event